sensor_id;sensor_type;location;lat;lon;timestamp;P1;durP1;ratioP1;P2;durP2;ratioP2
3700;SDS011;1866;48.374;10.766;2023-04-15T00:00:46;100.67;;;8.03;;
3700;SDS011;1866;48.374;10.766;2023-04-15T00:03:14;96.10;;;6.93;;
3700;SDS011;1866;48.374;10.766;2023-04-15T00:05:41;99.10;;;8.37;;
3700;SDS011;1866;48.374;10.766;2023-04-15T00:08:10;99.20;;;7.50;;
3700;SDS011;1866;48.374;10.766;2023-04-15T00:10:36;96.60;;;7.07;;
3700;SDS011;1866;48.374;10.766;2023-04-15T00:13:03;96.83;;;7.60;;
3700;SDS011;1866;48.374;10.766;2023-04-15T00:15:30;97.70;;;7.77;;
3700;SDS011;1866;48.374;10.766;2023-04-15T00:17:57;99.43;;;7.90;;
3700;SDS011;1866;48.374;10.766;2023-04-15T00:20:24;97.97;;;7.40;;
3700;SDS011;1866;48.374;10.766;2023-04-15T00:22:51;96.50;;;7.30;;
3700;SDS011;1866;48.374;10.766;2023-04-15T00:25:20;97.77;;;7.17;;
3700;SDS011;1866;48.374;10.766;2023-04-15T00:27:47;97.83;;;7.23;;
3700;SDS011;1866;48.374;10.766;2023-04-15T00:30:14;103.77;;;8.10;;
3700;SDS011;1866;48.374;10.766;2023-04-15T00:32:41;96.50;;;7.13;;
3700;SDS011;1866;48.374;10.766;2023-04-15T00:35:08;102.90;;;8.27;;
3700;SDS011;1866;48.374;10.766;2023-04-15T00:37:35;96.50;;;7.20;;
3700;SDS011;1866;48.374;10.766;2023-04-15T00:40:02;97.67;;;8.00;;
3700;SDS011;1866;48.374;10.766;2023-04-15T00:42:33;97.37;;;7.17;;
3700;SDS011;1866;48.374;10.766;2023-04-15T00:45:00;98.87;;;8.00;;
3700;SDS011;1866;48.374;10.766;2023-04-15T00:47:27;97.57;;;7.90;;
3700;SDS011;1866;48.374;10.766;2023-04-15T00:49:55;96.23;;;7.20;;
3700;SDS011;1866;48.374;10.766;2023-04-15T00:52:22;97.00;;;7.60;;
3700;SDS011;1866;48.374;10.766;2023-04-15T00:54:48;97.33;;;7.60;;
3700;SDS011;1866;48.374;10.766;2023-04-15T00:57:18;97.17;;;7.60;;
3700;SDS011;1866;48.374;10.766;2023-04-15T00:59:47;97.15;;;7.47;;
3700;SDS011;1866;48.374;10.766;2023-04-15T01:02:15;95.63;;;7.00;;
3700;SDS011;1866;48.374;10.766;2023-04-15T01:04:42;97.93;;;7.20;;
3700;SDS011;1866;48.374;10.766;2023-04-15T01:07:09;96.77;;;7.60;;
3700;SDS011;1866;48.374;10.766;2023-04-15T01:09:36;96.50;;;6.90;;
3700;SDS011;1866;48.374;10.766;2023-04-15T01:12:03;98.32;;;7.63;;
3700;SDS011;1866;48.374;10.766;2023-04-15T01:14:30;96.27;;;7.33;;
3700;SDS011;1866;48.374;10.766;2023-04-15T01:17:00;96.82;;;7.30;;
3700;SDS011;1866;48.374;10.766;2023-04-15T01:19:27;96.05;;;7.15;;
3700;SDS011;1866;48.374;10.766;2023-04-15T01:21:54;100.90;;;8.10;;
3700;SDS011;1866;48.374;10.766;2023-04-15T01:24:21;99.30;;;7.83;;
3700;SDS011;1866;48.374;10.766;2023-04-15T01:26:50;99.77;;;8.30;;
3700;SDS011;1866;48.374;10.766;2023-04-15T01:29:17;97.78;;;7.90;;
3700;SDS011;1866;48.374;10.766;2023-04-15T01:31:48;97.72;;;8.00;;
3700;SDS011;1866;48.374;10.766;2023-04-15T01:34:16;96.67;;;8.00;;
3700;SDS011;1866;48.374;10.766;2023-04-15T01:36:43;96.87;;;7.93;;
3700;SDS011;1866;48.374;10.766;2023-04-15T01:39:10;99.77;;;6.90;;
3700;SDS011;1866;48.374;10.766;2023-04-15T01:41:37;97.37;;;8.10;;
3700;SDS011;1866;48.374;10.766;2023-04-15T01:44:06;106.20;;;8.10;;
3700;SDS011;1866;48.374;10.766;2023-04-15T01:46:33;97.43;;;7.57;;
3700;SDS011;1866;48.374;10.766;2023-04-15T01:49:00;96.53;;;7.30;;
3700;SDS011;1866;48.374;10.766;2023-04-15T01:51:27;99.80;;;7.30;;
3700;SDS011;1866;48.374;10.766;2023-04-15T01:53:54;100.18;;;8.10;;
3700;SDS011;1866;48.374;10.766;2023-04-15T01:56:21;97.78;;;7.80;;
3700;SDS011;1866;48.374;10.766;2023-04-15T01:58:49;100.90;;;8.82;;
3700;SDS011;1866;48.374;10.766;2023-04-15T02:01:17;97.50;;;7.50;;
3700;SDS011;1866;48.374;10.766;2023-04-15T02:03:44;97.82;;;8.32;;
3700;SDS011;1866;48.374;10.766;2023-04-15T02:06:12;99.03;;;7.45;;
3700;SDS011;1866;48.374;10.766;2023-04-15T02:08:39;99.05;;;8.57;;
3700;SDS011;1866;48.374;10.766;2023-04-15T02:11:06;97.28;;;7.90;;
3700;SDS011;1866;48.374;10.766;2023-04-15T02:13:33;101.75;;;8.18;;
3700;SDS011;1866;48.374;10.766;2023-04-15T02:16:00;96.30;;;7.40;;
3700;SDS011;1866;48.374;10.766;2023-04-15T02:18:28;98.10;;;7.57;;
3700;SDS011;1866;48.374;10.766;2023-04-15T02:20:55;97.97;;;7.07;;
3700;SDS011;1866;48.374;10.766;2023-04-15T02:23:22;99.27;;;8.20;;
3700;SDS011;1866;48.374;10.766;2023-04-15T02:25:49;98.60;;;7.37;;
3700;SDS011;1866;48.374;10.766;2023-04-15T02:28:16;98.63;;;7.43;;
3700;SDS011;1866;48.374;10.766;2023-04-15T02:30:46;99.30;;;7.87;;
3700;SDS011;1866;48.374;10.766;2023-04-15T02:33:13;96.57;;;7.32;;
3700;SDS011;1866;48.374;10.766;2023-04-15T02:35:41;100.47;;;7.97;;
3700;SDS011;1866;48.374;10.766;2023-04-15T02:38:09;102.17;;;7.97;;
3700;SDS011;1866;48.374;10.766;2023-04-15T02:40:36;96.47;;;7.00;;
3700;SDS011;1866;48.374;10.766;2023-04-15T02:43:03;98.45;;;7.82;;
3700;SDS011;1866;48.374;10.766;2023-04-15T02:45:32;100.47;;;7.20;;
3700;SDS011;1866;48.374;10.766;2023-04-15T02:47:58;98.53;;;7.20;;
3700;SDS011;1866;48.374;10.766;2023-04-15T02:50:30;98.00;;;7.50;;
3700;SDS011;1866;48.374;10.766;2023-04-15T02:52:58;98.03;;;6.85;;
3700;SDS011;1866;48.374;10.766;2023-04-15T02:55:26;98.85;;;8.00;;
3700;SDS011;1866;48.374;10.766;2023-04-15T02:57:53;99.27;;;8.67;;
3700;SDS011;1866;48.374;10.766;2023-04-15T03:00:21;96.53;;;7.10;;
3700;SDS011;1866;48.374;10.766;2023-04-15T03:02:49;98.43;;;7.73;;
3700;SDS011;1866;48.374;10.766;2023-04-15T03:05:20;100.47;;;7.40;;
3700;SDS011;1866;48.374;10.766;2023-04-15T03:07:49;97.53;;;7.93;;
3700;SDS011;1866;48.374;10.766;2023-04-15T03:10:17;96.90;;;7.30;;
3700;SDS011;1866;48.374;10.766;2023-04-15T03:12:44;97.35;;;7.65;;
3700;SDS011;1866;48.374;10.766;2023-04-15T03:15:11;99.67;;;8.03;;
3700;SDS011;1866;48.374;10.766;2023-04-15T03:17:38;96.57;;;7.13;;
3700;SDS011;1866;48.374;10.766;2023-04-15T03:20:05;98.77;;;8.00;;
3700;SDS011;1866;48.374;10.766;2023-04-15T03:22:33;104.07;;;8.10;;
3700;SDS011;1866;48.374;10.766;2023-04-15T03:24:59;97.70;;;7.30;;
3700;SDS011;1866;48.374;10.766;2023-04-15T03:27:29;97.23;;;7.53;;
3700;SDS011;1866;48.374;10.766;2023-04-15T03:29:56;101.75;;;7.63;;
3700;SDS011;1866;48.374;10.766;2023-04-15T03:32:23;98.95;;;7.55;;
3700;SDS011;1866;48.374;10.766;2023-04-15T03:34:49;98.97;;;7.80;;
3700;SDS011;1866;48.374;10.766;2023-04-15T03:37:16;98.32;;;7.85;;
3700;SDS011;1866;48.374;10.766;2023-04-15T03:39:43;98.30;;;7.95;;
3700;SDS011;1866;48.374;10.766;2023-04-15T03:42:10;97.28;;;7.70;;
3700;SDS011;1866;48.374;10.766;2023-04-15T03:44:38;97.78;;;7.93;;
3700;SDS011;1866;48.374;10.766;2023-04-15T03:47:05;99.03;;;8.03;;
3700;SDS011;1866;48.374;10.766;2023-04-15T03:49:32;98.00;;;8.13;;
3700;SDS011;1866;48.374;10.766;2023-04-15T03:51:59;98.87;;;8.33;;
3700;SDS011;1866;48.374;10.766;2023-04-15T03:54:26;98.10;;;8.00;;
3700;SDS011;1866;48.374;10.766;2023-04-15T03:56:53;99.05;;;8.32;;
3700;SDS011;1866;48.374;10.766;2023-04-15T03:59:20;98.47;;;7.20;;
3700;SDS011;1866;48.374;10.766;2023-04-15T04:01:48;101.07;;;8.17;;
3700;SDS011;1866;48.374;10.766;2023-04-15T04:04:14;99.80;;;7.80;;
3700;SDS011;1866;48.374;10.766;2023-04-15T04:06:41;102.00;;;8.40;;
3700;SDS011;1866;48.374;10.766;2023-04-15T04:09:08;97.63;;;7.55;;
3700;SDS011;1866;48.374;10.766;2023-04-15T04:11:35;111.85;;;7.80;;
3700;SDS011;1866;48.374;10.766;2023-04-15T04:14:02;99.37;;;7.90;;
3700;SDS011;1866;48.374;10.766;2023-04-15T04:16:29;97.60;;;8.53;;
3700;SDS011;1866;48.374;10.766;2023-04-15T04:18:57;98.28;;;7.75;;
3700;SDS011;1866;48.374;10.766;2023-04-15T04:21:24;99.27;;;7.90;;
3700;SDS011;1866;48.374;10.766;2023-04-15T04:23:52;98.05;;;8.00;;
3700;SDS011;1866;48.374;10.766;2023-04-15T04:26:19;98.33;;;7.80;;
3700;SDS011;1866;48.374;10.766;2023-04-15T04:28:46;100.93;;;8.52;;
3700;SDS011;1866;48.374;10.766;2023-04-15T04:31:13;98.80;;;7.80;;
3700;SDS011;1866;48.374;10.766;2023-04-15T04:33:40;97.93;;;7.50;;
3700;SDS011;1866;48.374;10.766;2023-04-15T04:36:08;97.97;;;7.15;;
3700;SDS011;1866;48.374;10.766;2023-04-15T04:38:35;99.70;;;8.30;;
3700;SDS011;1866;48.374;10.766;2023-04-15T04:41:02;100.97;;;7.93;;
3700;SDS011;1866;48.374;10.766;2023-04-15T04:43:28;99.63;;;8.43;;
3700;SDS011;1866;48.374;10.766;2023-04-15T04:45:55;104.53;;;8.53;;
3700;SDS011;1866;48.374;10.766;2023-04-15T04:48:22;99.87;;;7.80;;
3700;SDS011;1866;48.374;10.766;2023-04-15T04:50:50;99.17;;;7.27;;
3700;SDS011;1866;48.374;10.766;2023-04-15T04:53:18;99.18;;;7.85;;
3700;SDS011;1866;48.374;10.766;2023-04-15T04:55:45;97.93;;;7.63;;
3700;SDS011;1866;48.374;10.766;2023-04-15T04:58:12;99.55;;;7.47;;
3700;SDS011;1866;48.374;10.766;2023-04-15T05:00:39;98.37;;;7.80;;
3700;SDS011;1866;48.374;10.766;2023-04-15T05:03:06;102.90;;;8.20;;
3700;SDS011;1866;48.374;10.766;2023-04-15T05:05:33;99.43;;;8.05;;
3700;SDS011;1866;48.374;10.766;2023-04-15T05:08:01;97.47;;;7.00;;
3700;SDS011;1866;48.374;10.766;2023-04-15T05:10:29;97.88;;;7.22;;
3700;SDS011;1866;48.374;10.766;2023-04-15T05:12:56;97.17;;;7.80;;
3700;SDS011;1866;48.374;10.766;2023-04-15T05:15:23;96.45;;;7.10;;
3700;SDS011;1866;48.374;10.766;2023-04-15T05:17:49;96.80;;;7.10;;
3700;SDS011;1866;48.374;10.766;2023-04-15T05:20:16;101.72;;;6.88;;
3700;SDS011;1866;48.374;10.766;2023-04-15T05:22:43;98.53;;;7.10;;
3700;SDS011;1866;48.374;10.766;2023-04-15T05:25:10;106.70;;;8.27;;
3700;SDS011;1866;48.374;10.766;2023-04-15T05:27:39;97.70;;;7.07;;
3700;SDS011;1866;48.374;10.766;2023-04-15T05:30:06;98.77;;;7.47;;
3700;SDS011;1866;48.374;10.766;2023-04-15T05:32:34;97.20;;;6.87;;
3700;SDS011;1866;48.374;10.766;2023-04-15T05:35:00;97.47;;;6.60;;
3700;SDS011;1866;48.374;10.766;2023-04-15T05:37:27;98.73;;;7.20;;
3700;SDS011;1866;48.374;10.766;2023-04-15T05:39:54;99.33;;;6.83;;
3700;SDS011;1866;48.374;10.766;2023-04-15T05:42:21;100.10;;;6.63;;
3700;SDS011;1866;48.374;10.766;2023-04-15T05:44:49;103.70;;;7.83;;
3700;SDS011;1866;48.374;10.766;2023-04-15T05:47:16;101.53;;;6.37;;
3700;SDS011;1866;48.374;10.766;2023-04-15T05:49:43;97.30;;;6.53;;
3700;SDS011;1866;48.374;10.766;2023-04-15T05:52:09;96.87;;;6.60;;
3700;SDS011;1866;48.374;10.766;2023-04-15T05:54:36;97.37;;;6.37;;
3700;SDS011;1866;48.374;10.766;2023-04-15T05:57:03;97.27;;;6.37;;
3700;SDS011;1866;48.374;10.766;2023-04-15T05:59:30;98.60;;;7.00;;
3700;SDS011;1866;48.374;10.766;2023-04-15T06:01:58;103.43;;;7.07;;
3700;SDS011;1866;48.374;10.766;2023-04-15T06:04:26;96.53;;;6.10;;
3700;SDS011;1866;48.374;10.766;2023-04-15T06:06:53;96.83;;;5.90;;
3700;SDS011;1866;48.374;10.766;2023-04-15T06:09:20;97.53;;;6.07;;
3700;SDS011;1866;48.374;10.766;2023-04-15T06:11:46;98.40;;;6.50;;
3700;SDS011;1866;48.374;10.766;2023-04-15T06:14:13;96.97;;;6.07;;
3700;SDS011;1866;48.374;10.766;2023-04-15T06:16:40;100.67;;;6.37;;
3700;SDS011;1866;48.374;10.766;2023-04-15T06:19:09;96.43;;;6.37;;
3700;SDS011;1866;48.374;10.766;2023-04-15T06:21:36;98.30;;;7.80;;
3700;SDS011;1866;48.374;10.766;2023-04-15T06:24:03;97.37;;;6.63;;
3700;SDS011;1866;48.374;10.766;2023-04-15T06:26:30;96.70;;;6.20;;
3700;SDS011;1866;48.374;10.766;2023-04-15T06:28:57;101.40;;;6.60;;
3700;SDS011;1866;48.374;10.766;2023-04-15T06:31:24;104.00;;;8.17;;
3700;SDS011;1866;48.374;10.766;2023-04-15T06:33:51;97.20;;;6.40;;
3700;SDS011;1866;48.374;10.766;2023-04-15T06:36:19;97.43;;;6.37;;
3700;SDS011;1866;48.374;10.766;2023-04-15T06:38:46;98.30;;;6.10;;
3700;SDS011;1866;48.374;10.766;2023-04-15T06:41:12;98.50;;;6.33;;
3700;SDS011;1866;48.374;10.766;2023-04-15T06:43:39;101.07;;;6.27;;
3700;SDS011;1866;48.374;10.766;2023-04-15T06:46:06;96.80;;;5.93;;
3700;SDS011;1866;48.374;10.766;2023-04-15T06:48:33;97.23;;;6.03;;
3700;SDS011;1866;48.374;10.766;2023-04-15T06:51:00;96.37;;;5.90;;
3700;SDS011;1866;48.374;10.766;2023-04-15T06:53:29;97.30;;;6.03;;
3700;SDS011;1866;48.374;10.766;2023-04-15T06:55:56;97.27;;;6.60;;
3700;SDS011;1866;48.374;10.766;2023-04-15T06:58:23;101.10;;;6.30;;
3700;SDS011;1866;48.374;10.766;2023-04-15T07:00:49;98.30;;;6.40;;
3700;SDS011;1866;48.374;10.766;2023-04-15T07:03:17;101.33;;;6.77;;
3700;SDS011;1866;48.374;10.766;2023-04-15T07:05:44;98.90;;;6.80;;
3700;SDS011;1866;48.374;10.766;2023-04-15T07:08:11;97.97;;;6.13;;
3700;SDS011;1866;48.374;10.766;2023-04-15T07:10:39;97.70;;;6.90;;
3700;SDS011;1866;48.374;10.766;2023-04-15T07:13:06;99.47;;;6.23;;
3700;SDS011;1866;48.374;10.766;2023-04-15T07:15:33;96.00;;;5.57;;
3700;SDS011;1866;48.374;10.766;2023-04-15T07:18:00;97.73;;;6.30;;
3700;SDS011;1866;48.374;10.766;2023-04-15T07:20:27;101.63;;;7.27;;
3700;SDS011;1866;48.374;10.766;2023-04-15T07:22:54;101.83;;;7.20;;
3700;SDS011;1866;48.374;10.766;2023-04-15T07:25:21;129.60;;;15.37;;
3700;SDS011;1866;48.374;10.766;2023-04-15T07:27:49;108.67;;;9.67;;
3700;SDS011;1866;48.374;10.766;2023-04-15T07:30:18;98.17;;;6.47;;
3700;SDS011;1866;48.374;10.766;2023-04-15T07:32:44;100.40;;;6.47;;
3700;SDS011;1866;48.374;10.766;2023-04-15T07:35:11;99.37;;;6.47;;
3700;SDS011;1866;48.374;10.766;2023-04-15T07:37:38;98.43;;;6.40;;
3700;SDS011;1866;48.374;10.766;2023-04-15T07:40:07;96.17;;;5.53;;
3700;SDS011;1866;48.374;10.766;2023-04-15T07:42:35;96.97;;;5.70;;
3700;SDS011;1866;48.374;10.766;2023-04-15T07:45:04;96.27;;;5.50;;
3700;SDS011;1866;48.374;10.766;2023-04-15T07:47:31;96.07;;;5.47;;
3700;SDS011;1866;48.374;10.766;2023-04-15T07:49:58;99.10;;;6.10;;
3700;SDS011;1866;48.374;10.766;2023-04-15T07:52:26;99.37;;;6.50;;
3700;SDS011;1866;48.374;10.766;2023-04-15T07:54:53;96.90;;;6.03;;
3700;SDS011;1866;48.374;10.766;2023-04-15T07:57:20;97.13;;;5.80;;
3700;SDS011;1866;48.374;10.766;2023-04-15T07:59:46;97.53;;;6.23;;
3700;SDS011;1866;48.374;10.766;2023-04-15T08:02:15;95.97;;;5.60;;
3700;SDS011;1866;48.374;10.766;2023-04-15T08:04:42;102.10;;;6.03;;
3700;SDS011;1866;48.374;10.766;2023-04-15T08:07:09;97.87;;;5.67;;
3700;SDS011;1866;48.374;10.766;2023-04-15T08:09:35;98.90;;;5.60;;
3700;SDS011;1866;48.374;10.766;2023-04-15T08:12:02;98.70;;;5.73;;
3700;SDS011;1866;48.374;10.766;2023-04-15T08:14:29;96.97;;;5.90;;
3700;SDS011;1866;48.374;10.766;2023-04-15T08:16:56;102.70;;;7.53;;
3700;SDS011;1866;48.374;10.766;2023-04-15T08:19:24;97.50;;;5.93;;
3700;SDS011;1866;48.374;10.766;2023-04-15T08:21:51;100.90;;;6.07;;
3700;SDS011;1866;48.374;10.766;2023-04-15T08:24:18;97.70;;;5.70;;
3700;SDS011;1866;48.374;10.766;2023-04-15T08:26:45;100.43;;;7.00;;
3700;SDS011;1866;48.374;10.766;2023-04-15T08:29:12;101.67;;;5.93;;
3700;SDS011;1866;48.374;10.766;2023-04-15T08:31:39;98.03;;;6.03;;
3700;SDS011;1866;48.374;10.766;2023-04-15T08:34:06;96.60;;;5.40;;
3700;SDS011;1866;48.374;10.766;2023-04-15T08:36:34;97.97;;;5.77;;
3700;SDS011;1866;48.374;10.766;2023-04-15T08:39:01;98.47;;;6.13;;
3700;SDS011;1866;48.374;10.766;2023-04-15T08:41:30;98.07;;;5.80;;
3700;SDS011;1866;48.374;10.766;2023-04-15T08:44:00;99.47;;;6.13;;
3700;SDS011;1866;48.374;10.766;2023-04-15T08:46:30;97.57;;;5.77;;
3700;SDS011;1866;48.374;10.766;2023-04-15T08:48:59;101.10;;;5.97;;
3700;SDS011;1866;48.374;10.766;2023-04-15T08:51:28;98.60;;;5.57;;
3700;SDS011;1866;48.374;10.766;2023-04-15T08:53:57;97.83;;;5.77;;
3700;SDS011;1866;48.374;10.766;2023-04-15T08:56:24;98.17;;;6.30;;
3700;SDS011;1866;48.374;10.766;2023-04-15T08:58:51;98.47;;;6.17;;
3700;SDS011;1866;48.374;10.766;2023-04-15T09:01:18;100.20;;;6.97;;
3700;SDS011;1866;48.374;10.766;2023-04-15T09:03:45;97.50;;;5.97;;
3700;SDS011;1866;48.374;10.766;2023-04-15T09:06:15;99.47;;;6.53;;
3700;SDS011;1866;48.374;10.766;2023-04-15T09:08:42;99.83;;;6.60;;
3700;SDS011;1866;48.374;10.766;2023-04-15T09:11:10;99.60;;;6.33;;
3700;SDS011;1866;48.374;10.766;2023-04-15T09:13:37;100.30;;;6.13;;
3700;SDS011;1866;48.374;10.766;2023-04-15T09:16:04;98.60;;;6.10;;
3700;SDS011;1866;48.374;10.766;2023-04-15T09:18:32;97.87;;;5.60;;
3700;SDS011;1866;48.374;10.766;2023-04-15T09:21:03;99.23;;;6.10;;
3700;SDS011;1866;48.374;10.766;2023-04-15T09:23:32;98.80;;;5.90;;
3700;SDS011;1866;48.374;10.766;2023-04-15T09:26:00;97.73;;;6.00;;
3700;SDS011;1866;48.374;10.766;2023-04-15T09:28:29;97.87;;;5.57;;
3700;SDS011;1866;48.374;10.766;2023-04-15T09:30:56;108.63;;;6.57;;
3700;SDS011;1866;48.374;10.766;2023-04-15T09:33:24;98.27;;;5.60;;
3700;SDS011;1866;48.374;10.766;2023-04-15T09:35:58;99.17;;;6.07;;
3700;SDS011;1866;48.374;10.766;2023-04-15T09:38:26;100.30;;;7.10;;
3700;SDS011;1866;48.374;10.766;2023-04-15T09:40:53;98.93;;;5.97;;
3700;SDS011;1866;48.374;10.766;2023-04-15T09:43:21;99.37;;;6.10;;
3700;SDS011;1866;48.374;10.766;2023-04-15T09:45:51;99.47;;;5.87;;
3700;SDS011;1866;48.374;10.766;2023-04-15T09:48:19;100.77;;;6.10;;
3700;SDS011;1866;48.374;10.766;2023-04-15T09:50:47;102.20;;;6.63;;
3700;SDS011;1866;48.374;10.766;2023-04-15T09:53:15;98.80;;;5.80;;
3700;SDS011;1866;48.374;10.766;2023-04-15T09:55:44;100.30;;;5.87;;
3700;SDS011;1866;48.374;10.766;2023-04-15T09:58:21;100.60;;;5.93;;
3700;SDS011;1866;48.374;10.766;2023-04-15T10:00:51;102.07;;;6.10;;
3700;SDS011;1866;48.374;10.766;2023-04-15T10:03:19;98.00;;;5.70;;
3700;SDS011;1866;48.374;10.766;2023-04-15T10:05:47;98.80;;;6.93;;
3700;SDS011;1866;48.374;10.766;2023-04-15T10:08:16;100.87;;;6.10;;
3700;SDS011;1866;48.374;10.766;2023-04-15T10:10:44;100.60;;;6.40;;
3700;SDS011;1866;48.374;10.766;2023-04-15T10:13:12;98.73;;;5.87;;
3700;SDS011;1866;48.374;10.766;2023-04-15T10:15:41;98.70;;;5.80;;
3700;SDS011;1866;48.374;10.766;2023-04-15T10:18:13;99.90;;;6.63;;
3700;SDS011;1866;48.374;10.766;2023-04-15T10:20:42;103.57;;;6.53;;
3700;SDS011;1866;48.374;10.766;2023-04-15T10:23:10;102.97;;;6.07;;
3700;SDS011;1866;48.374;10.766;2023-04-15T10:25:37;98.80;;;5.70;;
3700;SDS011;1866;48.374;10.766;2023-04-15T10:28:05;100.60;;;7.50;;
3700;SDS011;1866;48.374;10.766;2023-04-15T10:30:33;100.60;;;5.90;;
3700;SDS011;1866;48.374;10.766;2023-04-15T10:33:01;100.90;;;6.13;;
3700;SDS011;1866;48.374;10.766;2023-04-15T10:35:31;98.57;;;5.63;;
3700;SDS011;1866;48.374;10.766;2023-04-15T10:37:59;99.87;;;5.80;;
3700;SDS011;1866;48.374;10.766;2023-04-15T10:40:26;100.67;;;6.57;;
3700;SDS011;1866;48.374;10.766;2023-04-15T10:42:56;102.83;;;6.07;;
3700;SDS011;1866;48.374;10.766;2023-04-15T10:45:24;100.40;;;6.00;;
3700;SDS011;1866;48.374;10.766;2023-04-15T10:47:53;106.10;;;6.20;;
3700;SDS011;1866;48.374;10.766;2023-04-15T10:50:22;98.20;;;5.63;;
3700;SDS011;1866;48.374;10.766;2023-04-15T10:52:54;98.10;;;6.00;;
3700;SDS011;1866;48.374;10.766;2023-04-15T10:55:22;107.17;;;6.67;;
3700;SDS011;1866;48.374;10.766;2023-04-15T10:57:51;101.83;;;6.67;;
3700;SDS011;1866;48.374;10.766;2023-04-15T11:00:19;98.67;;;5.93;;
3700;SDS011;1866;48.374;10.766;2023-04-15T11:02:51;99.60;;;6.00;;
3700;SDS011;1866;48.374;10.766;2023-04-15T11:05:19;100.70;;;6.07;;
3700;SDS011;1866;48.374;10.766;2023-04-15T11:07:51;99.50;;;6.37;;
3700;SDS011;1866;48.374;10.766;2023-04-15T11:13:24;101.47;;;6.53;;
3700;SDS011;1866;48.374;10.766;2023-04-15T11:15:56;99.30;;;5.43;;
3700;SDS011;1866;48.374;10.766;2023-04-15T11:18:28;99.07;;;5.70;;
3700;SDS011;1866;48.374;10.766;2023-04-15T11:20:57;100.87;;;5.53;;
3700;SDS011;1866;48.374;10.766;2023-04-15T11:23:28;99.83;;;5.27;;
3700;SDS011;1866;48.374;10.766;2023-04-15T11:25:56;100.67;;;5.77;;
3700;SDS011;1866;48.374;10.766;2023-04-15T11:28:24;97.97;;;5.60;;
3700;SDS011;1866;48.374;10.766;2023-04-15T11:30:52;100.77;;;5.70;;
3700;SDS011;1866;48.374;10.766;2023-04-15T11:33:20;98.87;;;5.87;;
3700;SDS011;1866;48.374;10.766;2023-04-15T11:35:48;98.57;;;5.50;;
3700;SDS011;1866;48.374;10.766;2023-04-15T11:38:15;99.27;;;5.90;;
3700;SDS011;1866;48.374;10.766;2023-04-15T11:40:43;100.80;;;5.80;;
3700;SDS011;1866;48.374;10.766;2023-04-15T11:43:10;97.70;;;5.30;;
3700;SDS011;1866;48.374;10.766;2023-04-15T11:45:46;97.87;;;5.63;;
3700;SDS011;1866;48.374;10.766;2023-04-15T11:48:15;98.10;;;5.43;;
3700;SDS011;1866;48.374;10.766;2023-04-15T11:50:43;97.93;;;5.13;;
3700;SDS011;1866;48.374;10.766;2023-04-15T11:53:10;100.17;;;5.50;;
3700;SDS011;1866;48.374;10.766;2023-04-15T11:55:44;97.80;;;5.40;;
3700;SDS011;1866;48.374;10.766;2023-04-15T11:58:12;98.00;;;5.40;;
3700;SDS011;1866;48.374;10.766;2023-04-15T12:00:40;99.70;;;6.37;;
3700;SDS011;1866;48.374;10.766;2023-04-15T12:03:12;98.40;;;5.83;;
3700;SDS011;1866;48.374;10.766;2023-04-15T12:08:51;99.13;;;6.00;;
3700;SDS011;1866;48.374;10.766;2023-04-15T12:11:28;104.60;;;5.97;;
3700;SDS011;1866;48.374;10.766;2023-04-15T12:13:57;98.70;;;5.70;;
3700;SDS011;1866;48.374;10.766;2023-04-15T12:16:26;98.57;;;5.77;;
3700;SDS011;1866;48.374;10.766;2023-04-15T12:18:54;100.87;;;5.77;;
3700;SDS011;1866;48.374;10.766;2023-04-15T12:21:23;98.40;;;6.07;;
3700;SDS011;1866;48.374;10.766;2023-04-15T12:23:51;100.07;;;6.30;;
3700;SDS011;1866;48.374;10.766;2023-04-15T12:26:24;98.80;;;5.97;;
3700;SDS011;1866;48.374;10.766;2023-04-15T12:28:54;99.33;;;6.23;;
3700;SDS011;1866;48.374;10.766;2023-04-15T12:31:21;99.30;;;5.77;;
3700;SDS011;1866;48.374;10.766;2023-04-15T12:33:49;97.90;;;5.40;;
3700;SDS011;1866;48.374;10.766;2023-04-15T12:36:16;98.73;;;5.87;;
3700;SDS011;1866;48.374;10.766;2023-04-15T12:38:42;100.23;;;7.00;;
3700;SDS011;1866;48.374;10.766;2023-04-15T12:41:09;99.43;;;6.30;;
3700;SDS011;1866;48.374;10.766;2023-04-15T12:43:36;98.47;;;6.20;;
3700;SDS011;1866;48.374;10.766;2023-04-15T12:46:04;97.00;;;5.50;;
3700;SDS011;1866;48.374;10.766;2023-04-15T12:48:32;98.60;;;6.10;;
3700;SDS011;1866;48.374;10.766;2023-04-15T12:50:59;98.37;;;6.23;;
3700;SDS011;1866;48.374;10.766;2023-04-15T12:53:26;100.53;;;5.73;;
3700;SDS011;1866;48.374;10.766;2023-04-15T12:55:53;98.00;;;6.30;;
3700;SDS011;1866;48.374;10.766;2023-04-15T12:58:20;98.73;;;5.97;;
3700;SDS011;1866;48.374;10.766;2023-04-15T13:00:47;98.90;;;5.87;;
3700;SDS011;1866;48.374;10.766;2023-04-15T13:03:16;98.03;;;5.80;;
3700;SDS011;1866;48.374;10.766;2023-04-15T13:05:42;100.83;;;5.90;;
3700;SDS011;1866;48.374;10.766;2023-04-15T13:08:09;99.27;;;6.53;;
3700;SDS011;1866;48.374;10.766;2023-04-15T13:10:36;100.10;;;6.50;;
3700;SDS011;1866;48.374;10.766;2023-04-15T13:13:03;102.13;;;6.53;;
3700;SDS011;1866;48.374;10.766;2023-04-15T13:15:31;97.97;;;5.87;;
3700;SDS011;1866;48.374;10.766;2023-04-15T13:17:57;98.23;;;6.03;;
3700;SDS011;1866;48.374;10.766;2023-04-15T13:20:26;97.90;;;5.90;;
3700;SDS011;1866;48.374;10.766;2023-04-15T13:22:53;100.80;;;5.90;;
3700;SDS011;1866;48.374;10.766;2023-04-15T13:25:20;97.93;;;5.70;;
3700;SDS011;1866;48.374;10.766;2023-04-15T13:27:47;97.53;;;5.57;;
3700;SDS011;1866;48.374;10.766;2023-04-15T13:30:13;101.47;;;5.43;;
3700;SDS011;1866;48.374;10.766;2023-04-15T13:32:40;100.47;;;6.20;;
3700;SDS011;1866;48.374;10.766;2023-04-15T13:35:07;101.07;;;6.07;;
3700;SDS011;1866;48.374;10.766;2023-04-15T13:37:36;99.10;;;6.07;;
3700;SDS011;1866;48.374;10.766;2023-04-15T13:40:03;98.00;;;5.77;;
3700;SDS011;1866;48.374;10.766;2023-04-15T13:44:59;98.57;;;5.80;;
3700;SDS011;1866;48.374;10.766;2023-04-15T13:47:26;99.17;;;6.00;;
3700;SDS011;1866;48.374;10.766;2023-04-15T13:49:52;98.90;;;5.50;;
3700;SDS011;1866;48.374;10.766;2023-04-15T13:52:20;101.97;;;6.67;;
3700;SDS011;1866;48.374;10.766;2023-04-15T13:54:48;97.57;;;5.80;;
3700;SDS011;1866;48.374;10.766;2023-04-15T13:57:16;97.53;;;5.33;;
3700;SDS011;1866;48.374;10.766;2023-04-15T13:59:42;97.20;;;5.87;;
3700;SDS011;1866;48.374;10.766;2023-04-15T14:02:09;98.07;;;5.87;;
3700;SDS011;1866;48.374;10.766;2023-04-15T14:04:36;99.90;;;6.10;;
3700;SDS011;1866;48.374;10.766;2023-04-15T14:07:03;97.70;;;5.80;;
3700;SDS011;1866;48.374;10.766;2023-04-15T14:09:30;97.70;;;5.77;;
3700;SDS011;1866;48.374;10.766;2023-04-15T14:11:58;99.80;;;6.30;;
3700;SDS011;1866;48.374;10.766;2023-04-15T14:14:26;97.57;;;6.20;;
3700;SDS011;1866;48.374;10.766;2023-04-15T14:16:53;97.70;;;5.87;;
3700;SDS011;1866;48.374;10.766;2023-04-15T14:19:21;97.30;;;5.80;;
3700;SDS011;1866;48.374;10.766;2023-04-15T14:21:48;98.30;;;6.00;;
3700;SDS011;1866;48.374;10.766;2023-04-15T14:24:14;100.10;;;6.13;;
3700;SDS011;1866;48.374;10.766;2023-04-15T14:26:41;97.57;;;6.30;;
3700;SDS011;1866;48.374;10.766;2023-04-15T14:29:10;97.70;;;6.07;;
3700;SDS011;1866;48.374;10.766;2023-04-15T14:31:37;97.37;;;5.63;;
3700;SDS011;1866;48.374;10.766;2023-04-15T14:34:04;100.37;;;6.30;;
3700;SDS011;1866;48.374;10.766;2023-04-15T14:36:31;97.97;;;5.90;;
3700;SDS011;1866;48.374;10.766;2023-04-15T14:38:58;98.47;;;5.90;;
3700;SDS011;1866;48.374;10.766;2023-04-15T14:41:24;97.37;;;5.80;;
3700;SDS011;1866;48.374;10.766;2023-04-15T14:43:51;97.57;;;5.70;;
3700;SDS011;1866;48.374;10.766;2023-04-15T14:46:19;96.67;;;5.60;;
3700;SDS011;1866;48.374;10.766;2023-04-15T14:48:46;105.70;;;5.90;;
3700;SDS011;1866;48.374;10.766;2023-04-15T14:51:14;96.80;;;5.40;;
3700;SDS011;1866;48.374;10.766;2023-04-15T14:53:41;96.70;;;5.70;;
3700;SDS011;1866;48.374;10.766;2023-04-15T14:56:08;96.47;;;5.30;;